Forside
METAR-TAF:

METAR-TAF

Lufthavne :

Morris Municipal Airport (James R. Washburn Field)

Morris, Illinois, USA

Breddekreds: 41-25-31N, længdekreds: 088-25-07W, højde: 178 m

Aktuelle vejr

Denne rapport blev lavet for 31 minutter siden, kl. 17:55 UTC
Vind 9 kt fra vestsydvest med vindstød på up til 14 kt
Temperatur 10°C
Fugtighed 53%
Tryk 1015 hPa
Sigt: 16.1 km
skyfri

METAR: KC09 231755Z AUTO 24009G14KT 10SM CLR 10/01 A2996 RMK AO2 T01010006 10101 20005

Tid: 12:26 (18:26 UTC)


TAF: fraværende

Vejrobservationer og prognoser fra mere end 4000 lufthavne (METAR og TAF).

De gule og røde prikker repræsenterer de meteorologiske stationer.

Flyt musen over at se navnet på stationen.

Så klik over at se vejr observationer og prognoser.

At skifte det kort: Klik på de grønne knapper med et sort kors for at zoome ind; på den grønne knap med en bindestreg for at zoome ud; eller på de grønne pile for tilstødende kort.


METAR-TAF: